| time (UTC) | temp F | wind direction | speed knots | gust knots | rain 1hr in | rain 24hr in | rain mn in | humidity % | barometer mb |
| 20260906213001 | 66 | 278 | 1.7 | 2.6 | 0.00 | 0.00 | 0.00 | 75 | 1010.9 |
| 20260906212019 | 66 | 247 | 0.9 | 1.7 | 0.00 | 0.00 | 0.00 | 74 | 1011.2 |
| 20260906211020 | 66 | 244 | 0.9 | 1.7 | 0.00 | 0.00 | 0.00 | 72 | 1011.0 |
| 20260906210026 | 67 | 329 | 2.6 | 3.5 | 0.00 | 0.00 | 0.00 | 72 | 1011.1 |
| 20260906205029 | 67 | 136 | 0.9 | 1.7 | 0.00 | 0.00 | 0.00 | 73 | 1011.2 |
| 20260906204033 | 66 | 245 | 0.9 | 1.7 | 0.00 | 0.00 | 0.00 | 73 | 1010.8 |
| 20260906203025 | 68 | 302 | 2.6 | 3.5 | 0.00 | 0.00 | 0.00 | 70 | 1010.9 |
| 20260906202009 | 69 | 250 | 2.6 | 3.5 | 0.00 | 0.00 | 0.00 | 71 | 1010.7 |
| 20260906200024 | 69 | 200 | 1.7 | 2.6 | 0.00 | 0.00 | 0.00 | 71 | 1010.9 |
| 20260906194019 | 70 | 203 | 2.6 | 3.5 | 0.00 | 0.00 | 0.00 | 70 | 1011.0 |
| 20260906193026 | 71 | 205 | 2.6 | 5.2 | 0.00 | 0.00 | 0.00 | 68 | 1010.7 |
| 20260906192002 | 70 | 299 | 0.9 | 1.7 | 0.00 | 0.00 | 0.00 | 74 | 1010.7 |
| 20260906190038 | 70 | 281 | 2.6 | 3.5 | 0.00 | 0.00 | 0.00 | 69 | 1010.6 |
| 20260906185016 | 69 | 230 | 0.9 | 1.7 | 0.00 | 0.00 | 0.00 | 71 | 1010.6 |
| 20260906184008 | 70 | 248 | 2.6 | 2.6 | 0.00 | 0.00 | 0.00 | 70 | 1010.6 |
| 20260906183023 | 70 | 222 | 1.7 | 2.6 | 0.00 | 0.00 | 0.00 | 70 | 1010.9 |
| 20260906182021 | 68 | 227 | 0.9 | 1.7 | 0.00 | 0.00 | 0.00 | 73 | 1010.8 |
| 20260906181012 | 68 | 231 | 1.7 | 2.6 | 0.00 | 0.00 | 0.00 | 76 | 1010.9 |
| 20260906180045 | 70 | 232 | 1.7 | 2.6 | 0.00 | 0.00 | 0.00 | 72 | 1011.0 |
| 20260906175024 | 68 | 143 | 2.6 | 3.5 | 0.00 | 0.00 | 0.00 | 73 | 1010.7 |
| 20260906174037 | 69 | 261 | 2.6 | 3.5 | 0.00 | 0.00 | 0.00 | 70 | 1010.7 |
| 20260906173029 | 69 | 170 | 2.6 | 3.5 | 0.00 | 0.00 | 0.00 | 69 | 1010.7 |
| 20260906172010 | 70 | 258 | 1.7 | 1.7 | 0.00 | 0.00 | 0.00 | 71 | 1010.9 |
| 20260906170016 | 69 | 46 | 4.3 | 6.1 | 0.00 | 0.00 | 0.00 | 70 | 1010.8 |
| 20260906165018 | 70 | 244 | 1.7 | 2.6 | 0.00 | 0.00 | 0.00 | 72 | 1011.0 |
| 20260906164014 | 69 | 162 | 4.3 | 5.2 | 0.00 | 0.00 | 0.00 | 74 | 1011.0 |
| 20260906163046 | 69 | 254 | 2.6 | 3.5 | 0.00 | 0.00 | 0.00 | 75 | 1010.8 |
| 20260906161004 | 69 | 252 | 2.6 | 3.5 | 0.00 | 0.00 | 0.00 | 75 | 1010.8 |
| 20260906160037 | 70 | 129 | 3.5 | 4.3 | 0.00 | 0.00 | 0.00 | 74 | 1010.7 |
| 20260906155025 | 68 | 236 | 0.9 | 1.7 | 0.00 | 0.00 | 0.00 | 78 | 1010.8 |
| 20260906153020 | 69 | 153 | 1.7 | 2.6 | 0.00 | 0.00 | 0.00 | 75 | 1010.7 |
| 20260906152018 | 67 | 201 | 1.7 | 2.6 | 0.00 | 0.00 | 0.00 | 79 | 1010.7 |
| 20260906151013 | 69 | 33 | 2.6 | 4.3 | 0.00 | 0.00 | 0.00 | 77 | 1010.6 |
| 20260906150030 | 69 | 195 | 5.2 | 6.1 | 0.00 | 0.00 | 0.00 | 78 | 1010.7 |
| 20260906145002 | 67 | 184 | 3.5 | 5.2 | 0.00 | 0.00 | 0.00 | 81 | 1010.6 |
| 20260906144025 | 67 | 182 | 2.6 | 3.5 | 0.00 | 0.00 | 0.00 | 84 | 1010.4 |
| 20260906143033 | 67 | 299 | 1.7 | 2.6 | 0.00 | 0.00 | 0.00 | 84 | 1010.6 |
| 20260906142038 | 67 | 244 | 1.7 | 2.6 | 0.00 | 0.00 | 0.00 | 85 | 1010.6 |
| 20260906141002 | 69 | 203 | 3.5 | 5.2 | 0.00 | 0.00 | 0.00 | 79 | 1010.2 |
| 20260906140030 | 69 | 227 | 0.9 | 1.7 | 0.00 | 0.00 | 0.00 | 83 | 1010.3 |
| 20260906134006 | 68 | 124 | 6.1 | 7.8 | 0.00 | 0.00 | 0.00 | 89 | 1010.1 |
| 20260906132032 | 65 | 97 | 5.2 | 6.1 | 0.00 | 0.00 | 0.00 | 95 | 1010.2 |
| 20260906131020 | 65 | 210 | 1.7 | 2.6 | 0.00 | 0.00 | 0.00 | 97 | 1010.1 |
| 20260906130008 | 64 | 214 | 0.0 | 0.0 | 0.00 | 0.00 | 0.00 | 99 | 1010.1 |
| 20260906124036 | 62 | 219 | 0.0 | 0.0 | 0.00 | 0.00 | 0.00 | 99 | 1009.9 |
| 20260906122002 | 62 | 218 | 2.6 | 3.5 | 0.00 | 0.00 | 0.00 | 99 | 1009.6 |
| 20260906120042 | 62 | 220 | 0.0 | 0.0 | 0.00 | 0.00 | 0.00 | 99 | 1009.8 |
| 20260906114017 | 62 | 220 | 0.0 | 0.0 | 0.00 | 0.00 | 0.00 | 99 | 1009.2 |
| 20260906113045 | 62 | 220 | 0.0 | 0.0 | 0.00 | 0.00 | 0.00 | 99 | 1009.3 |
| 20260906112007 | 61 | 220 | 0.0 | 0.0 | 0.00 | 0.00 | 0.00 | 99 | 1009.1 |
| 20260906111010 | 60 | 220 | 0.0 | 0.0 | 0.00 | 0.00 | 0.00 | 99 | 1009.1 |
| 20260906104020 | 59 | 220 | 0.0 | 0.0 | 0.00 | 0.00 | 0.00 | 99 | 1008.8 |
| 20260906103044 | 59 | 220 | 0.0 | 0.0 | 0.00 | 0.00 | 0.00 | 99 | 1008.7 |
| 20260906102001 | 59 | 220 | 0.0 | 0.0 | 0.00 | 0.00 | 0.00 | 99 | 1008.7 |
| 20260906101033 | 59 | 220 | 0.0 | 0.0 | 0.00 | 0.00 | 0.00 | 99 | 1008.7 |
| 20260906100031 | 59 | 220 | 0.0 | 0.0 | 0.00 | 0.00 | 0.00 | 99 | 1008.2 |
| 20260906095032 | 59 | 220 | 0.0 | 0.0 | 0.00 | 0.00 | 0.00 | 99 | 1008.5 |
| 20260906094023 | 59 | 220 | 0.0 | 0.0 | 0.00 | 0.00 | 0.00 | 99 | 1008.3 |
| 20260906093043 | 59 | 220 | 0.0 | 0.0 | 0.00 | 0.00 | 0.00 | 99 | 1008.4 |
| 20260906092015 | 59 | 220 | 0.0 | 0.0 | 0.00 | 0.00 | 0.00 | 99 | 1008.4 |
| 20260906091034 | 59 | 220 | 0.0 | 0.0 | 0.00 | 0.00 | 0.00 | 99 | 1008.0 |
| 20260906090015 | 60 | 220 | 0.0 | 0.0 | 0.00 | 0.00 | 0.00 | 99 | 1007.9 |
| 20260906085042 | 60 | 220 | 0.0 | 0.0 | 0.00 | 0.00 | 0.00 | 99 | 1007.6 |
| 20260906084022 | 60 | 220 | 0.0 | 0.0 | 0.00 | 0.00 | 0.00 | 99 | 1007.6 |
| 20260906083005 | 61 | 220 | 0.0 | 0.0 | 0.00 | 0.00 | 0.00 | 99 | 1007.6 |
| 20260906081018 | 60 | 220 | 0.0 | 0.0 | 0.00 | 0.00 | 0.00 | 99 | 1007.3 |
| 20260906080038 | 60 | 220 | 0.0 | 0.0 | 0.00 | 0.00 | 0.00 | 99 | 1007.5 |
| 20260906075024 | 61 | 220 | 0.0 | 0.0 | 0.00 | 0.00 | 0.00 | 99 | 1007.4 |
| 20260906073016 | 61 | 220 | 0.0 | 0.0 | 0.00 | 0.00 | 0.00 | 99 | 1007.3 |
| 20260906072005 | 62 | 220 | 0.0 | 0.0 | 0.00 | 0.00 | 0.00 | 99 | 1007.3 |
| 20260906071025 | 61 | 220 | 0.0 | 0.0 | 0.00 | 0.00 | 0.00 | 99 | 1007.4 |
| 20260906065026 | 62 | 220 | 0.0 | 0.0 | 0.00 | 0.00 | 0.00 | 99 | 1007.2 |
| 20260906064030 | 62 | 220 | 0.0 | 0.0 | 0.00 | 0.00 | 0.00 | 99 | 1007.3 |
| 20260906063022 | 62 | 220 | 0.0 | 0.0 | 0.00 | 0.00 | 0.00 | 99 | 1007.5 |
| 20260906062029 | 62 | 220 | 0.0 | 0.0 | 0.00 | 0.00 | 0.00 | 99 | 1007.4 |
| 20260906061036 | 62 | 220 | 0.0 | 0.0 | 0.00 | 0.00 | 0.00 | 99 | 1007.4 |
| 20260906060010 | 62 | 220 | 0.0 | 0.0 | 0.00 | 0.00 | 0.00 | 99 | 1007.6 |
| 20260906055027 | 63 | 220 | 0.9 | 1.7 | 0.00 | 0.00 | 0.00 | 99 | 1007.5 |
| 20260906054010 | 63 | 220 | 0.0 | 0.0 | 0.00 | 0.00 | 0.00 | 99 | 1007.5 |
| 20260906053029 | 63 | 220 | 0.0 | 0.0 | 0.00 | 0.00 | 0.00 | 99 | 1007.6 |
| 20260906052038 | 62 | 220 | 0.0 | 0.0 | 0.00 | 0.00 | 0.00 | 99 | 1007.6 |
| 20260906051001 | 62 | 220 | 0.0 | 0.0 | 0.00 | 0.00 | 0.00 | 99 | 1007.6 |
| 20260906045023 | 62 | 220 | 0.0 | 0.0 | 0.00 | 0.00 | 0.00 | 98 | 1007.4 |
| 20260906044027 | 62 | 220 | 0.0 | 0.0 | 0.00 | 0.00 | 0.00 | 98 | 1007.2 |
| 20260906043001 | 62 | 220 | 0.0 | 0.0 | 0.00 | 0.00 | 0.00 | 98 | 1007.5 |
| 20260906042035 | 62 | 220 | 0.0 | 0.0 | 0.00 | 0.00 | 0.00 | 98 | 1007.4 |
| 20260906041027 | 62 | 220 | 0.0 | 0.0 | 0.00 | 0.00 | 0.00 | 97 | 1007.5 |
| 20260906040042 | 62 | 220 | 0.0 | 0.0 | 0.00 | 0.00 | 0.00 | 97 | 1007.2 |
| 20260906034020 | 62 | 220 | 0.0 | 0.0 | 0.00 | 0.00 | 0.00 | 97 | 1007.0 |
| 20260906033009 | 63 | 220 | 0.0 | 0.0 | 0.00 | 0.00 | 0.00 | 97 | 1007.3 |
| 20260906032004 | 63 | 220 | 0.0 | 0.0 | 0.00 | 0.00 | 0.00 | 97 | 1007.1 |
| 20260906031042 | 62 | 220 | 0.0 | 0.0 | 0.00 | 0.00 | 0.00 | 97 | 1007.2 |
| 20260906030017 | 62 | 220 | 0.0 | 0.0 | 0.00 | 0.00 | 0.00 | 97 | 1007.1 |
| 20260906024042 | 62 | 220 | 0.0 | 0.0 | 0.00 | 0.00 | 0.00 | 96 | 1006.8 |
| 20260906023039 | 62 | 220 | 0.0 | 0.0 | 0.00 | 0.00 | 0.00 | 96 | 1006.9 |
| 20260906022019 | 62 | 220 | 0.0 | 0.0 | 0.00 | 0.00 | 0.00 | 96 | 1006.7 |
| 20260906021022 | 62 | 220 | 0.0 | 0.0 | 0.00 | 0.00 | 0.00 | 95 | 1006.7 |
| 20260906020009 | 62 | 220 | 0.0 | 0.0 | 0.00 | 0.00 | 0.00 | 95 | 1006.9 |
| 20260906015012 | 62 | 220 | 0.0 | 0.0 | 0.00 | 0.00 | 0.00 | 95 | 1006.7 |
| 20260906014011 | 62 | 220 | 0.0 | 0.0 | 0.00 | 0.00 | 0.00 | 94 | 1006.5 |
| 20260906013014 | 63 | 220 | 0.0 | 0.0 | 0.00 | 0.00 | 0.00 | 94 | 1006.9 |
| 20260906012034 | 63 | 220 | 0.0 | 0.0 | 0.00 | 0.00 | 0.00 | 94 | 1006.7 |
| 20260906011045 | 63 | 220 | 0.0 | 0.0 | 0.00 | 0.00 | 0.00 | 94 | 1006.6 |
| 20260906010037 | 63 | 220 | 0.0 | 0.0 | 0.00 | 0.00 | 0.00 | 93 | 1006.7 |
| 20260906005031 | 63 | 220 | 0.0 | 0.0 | 0.00 | 0.00 | 0.00 | 92 | 1006.5 |
| 20260906004012 | 64 | 220 | 0.0 | 0.0 | 0.00 | 0.00 | 0.00 | 92 | 1006.4 |
| 20260906003014 | 64 | 220 | 0.0 | 0.0 | 0.00 | 0.00 | 0.00 | 91 | 1006.4 |
| 20260906001004 | 65 | 220 | 0.0 | 0.0 | 0.00 | 0.00 | 0.00 | 90 | 1006.4 |
| 20260906000037 | 65 | 220 | 0.0 | 0.0 | 0.00 | 0.00 | 0.00 | 90 | 1006.7 |
| 20260905235030 | 65 | 220 | 0.0 | 0.0 | 0.00 | 0.00 | 0.00 | 88 | 1006.4 |
| 20260905233010 | 66 | 220 | 0.0 | 0.0 | 0.00 | 0.00 | 0.00 | 86 | 1006.4 |
| 20260905232017 | 67 | 220 | 0.0 | 0.0 | 0.00 | 0.00 | 0.00 | 85 | 1006.4 |
| 20260905230042 | 68 | 219 | 0.9 | 1.7 | 0.00 | 0.00 | 0.00 | 84 | 1006.6 |
| 20260905225005 | 68 | 219 | 0.0 | 0.0 | 0.00 | 0.00 | 0.00 | 83 | 1006.4 |
| 20260905224028 | 68 | 220 | 0.9 | 1.7 | 0.00 | 0.00 | 0.00 | 83 | 1006.5 |
| 20260905223014 | 68 | 220 | 0.0 | 0.0 | 0.00 | 0.00 | 0.00 | 82 | 1006.2 |
| 20260905222002 | 68 | 219 | 0.0 | 0.0 | 0.00 | 0.00 | 0.00 | 82 | 1006.3 |
| 20260905221003 | 68 | 220 | 0.9 | 1.7 | 0.00 | 0.00 | 0.00 | 83 | 1006.4 |
| 20260905220035 | 68 | 220 | 0.0 | 0.0 | 0.00 | 0.00 | 0.00 | 82 | 1006.4 |
| 20260905215044 | 69 | 222 | 1.7 | 2.6 | 0.00 | 0.00 | 0.00 | 79 | 1006.0 |
| 20260905214045 | 70 | 221 | 0.0 | 0.0 | 0.00 | 0.00 | 0.00 | 79 | 1006.1 |